sensor_id;sensor_type;location;lat;lon;timestamp;P1;durP1;ratioP1;P2;durP2;ratioP2
47239;SDS011;32978;53.586;10.052;2022-10-16T00:03:33;60.45;;;57.00;;
47239;SDS011;32978;53.586;10.052;2022-10-16T00:08:30;61.65;;;58.20;;
47239;SDS011;32978;53.586;10.052;2022-10-16T00:13:26;55.15;;;51.92;;
47239;SDS011;32978;53.586;10.052;2022-10-16T00:18:22;51.47;;;48.67;;
47239;SDS011;32978;53.586;10.052;2022-10-16T00:23:19;47.67;;;45.00;;
47239;SDS011;32978;53.586;10.052;2022-10-16T00:28:15;45.08;;;42.47;;
47239;SDS011;32978;53.586;10.052;2022-10-16T00:33:11;39.30;;;36.88;;
47239;SDS011;32978;53.586;10.052;2022-10-16T00:38:07;28.77;;;26.83;;
47239;SDS011;32978;53.586;10.052;2022-10-16T00:43:14;25.30;;;23.38;;
47239;SDS011;32978;53.586;10.052;2022-10-16T00:48:11;20.33;;;18.95;;
47239;SDS011;32978;53.586;10.052;2022-10-16T00:53:08;18.27;;;17.08;;
47239;SDS011;32978;53.586;10.052;2022-10-16T00:58:05;19.92;;;18.27;;
47239;SDS011;32978;53.586;10.052;2022-10-16T01:03:01;16.40;;;14.85;;
47239;SDS011;32978;53.586;10.052;2022-10-16T01:13:10;14.52;;;13.35;;
47239;SDS011;32978;53.586;10.052;2022-10-16T01:23:12;14.40;;;13.40;;
47239;SDS011;32978;53.586;10.052;2022-10-16T01:28:11;13.05;;;12.05;;
47239;SDS011;32978;53.586;10.052;2022-10-16T01:33:19;13.18;;;12.27;;
47239;SDS011;32978;53.586;10.052;2022-10-16T01:38:27;14.18;;;13.07;;
47239;SDS011;32978;53.586;10.052;2022-10-16T01:43:27;13.80;;;12.80;;
47239;SDS011;32978;53.586;10.052;2022-10-16T01:48:26;15.52;;;14.27;;
47239;SDS011;32978;53.586;10.052;2022-10-16T01:53:22;15.90;;;14.63;;
47239;SDS011;32978;53.586;10.052;2022-10-16T01:58:19;15.05;;;13.85;;
47239;SDS011;32978;53.586;10.052;2022-10-16T02:03:17;15.30;;;14.10;;
47239;SDS011;32978;53.586;10.052;2022-10-16T02:08:14;14.98;;;13.85;;
47239;SDS011;32978;53.586;10.052;2022-10-16T02:13:12;16.17;;;14.95;;
47239;SDS011;32978;53.586;10.052;2022-10-16T02:18:09;15.50;;;14.50;;
47239;SDS011;32978;53.586;10.052;2022-10-16T02:23:06;16.38;;;15.25;;
47239;SDS011;32978;53.586;10.052;2022-10-16T02:33:05;19.45;;;17.70;;
47239;SDS011;32978;53.586;10.052;2022-10-16T02:38:02;17.35;;;16.00;;
47239;SDS011;32978;53.586;10.052;2022-10-16T02:42:59;18.05;;;16.48;;
47239;SDS011;32978;53.586;10.052;2022-10-16T02:47:55;18.92;;;17.45;;
47239;SDS011;32978;53.586;10.052;2022-10-16T02:52:51;18.60;;;17.33;;
47239;SDS011;32978;53.586;10.052;2022-10-16T02:57:47;19.20;;;17.95;;
47239;SDS011;32978;53.586;10.052;2022-10-16T03:02:44;18.05;;;16.95;;
47239;SDS011;32978;53.586;10.052;2022-10-16T03:07:40;20.20;;;18.35;;
47239;SDS011;32978;53.586;10.052;2022-10-16T03:12:36;19.60;;;18.25;;
47239;SDS011;32978;53.586;10.052;2022-10-16T03:17:33;19.70;;;18.40;;
47239;SDS011;32978;53.586;10.052;2022-10-16T03:22:29;21.50;;;20.05;;
47239;SDS011;32978;53.586;10.052;2022-10-16T03:27:25;23.90;;;22.40;;
47239;SDS011;32978;53.586;10.052;2022-10-16T03:32:22;24.60;;;23.20;;
47239;SDS011;32978;53.586;10.052;2022-10-16T03:37:20;26.13;;;24.42;;
47239;SDS011;32978;53.586;10.052;2022-10-16T03:42:17;26.52;;;24.67;;
47239;SDS011;32978;53.586;10.052;2022-10-16T03:47:14;26.95;;;25.40;;
47239;SDS011;32978;53.586;10.052;2022-10-16T03:52:10;26.95;;;24.88;;
47239;SDS011;32978;53.586;10.052;2022-10-16T03:57:06;26.27;;;24.80;;
47239;SDS011;32978;53.586;10.052;2022-10-16T04:02:02;28.05;;;26.35;;
47239;SDS011;32978;53.586;10.052;2022-10-16T04:06:59;27.73;;;25.88;;
47239;SDS011;32978;53.586;10.052;2022-10-16T04:11:55;27.10;;;25.50;;
47239;SDS011;32978;53.586;10.052;2022-10-16T04:16:52;26.75;;;24.65;;
47239;SDS011;32978;53.586;10.052;2022-10-16T04:21:48;27.15;;;25.40;;
47239;SDS011;32978;53.586;10.052;2022-10-16T04:26:44;27.40;;;25.92;;
47239;SDS011;32978;53.586;10.052;2022-10-16T04:31:40;25.70;;;24.20;;
47239;SDS011;32978;53.586;10.052;2022-10-16T04:36:36;26.75;;;25.05;;
47239;SDS011;32978;53.586;10.052;2022-10-16T04:41:33;29.10;;;27.38;;
47239;SDS011;32978;53.586;10.052;2022-10-16T04:46:29;28.63;;;26.90;;
47239;SDS011;32978;53.586;10.052;2022-10-16T04:51:25;29.35;;;27.75;;
47239;SDS011;32978;53.586;10.052;2022-10-16T04:56:22;29.67;;;27.77;;
47239;SDS011;32978;53.586;10.052;2022-10-16T05:01:19;29.83;;;28.02;;
47239;SDS011;32978;53.586;10.052;2022-10-16T05:06:15;30.88;;;28.90;;
47239;SDS011;32978;53.586;10.052;2022-10-16T05:11:11;29.95;;;28.15;;
47239;SDS011;32978;53.586;10.052;2022-10-16T05:16:08;34.25;;;32.10;;
47239;SDS011;32978;53.586;10.052;2022-10-16T05:21:04;32.40;;;30.38;;
47239;SDS011;32978;53.586;10.052;2022-10-16T05:26:01;32.90;;;31.10;;
47239;SDS011;32978;53.586;10.052;2022-10-16T05:30:58;37.83;;;34.63;;
47239;SDS011;32978;53.586;10.052;2022-10-16T05:35:55;36.78;;;34.67;;
47239;SDS011;32978;53.586;10.052;2022-10-16T05:40:51;39.15;;;36.95;;
47239;SDS011;32978;53.586;10.052;2022-10-16T05:45:57;41.20;;;38.75;;
47239;SDS011;32978;53.586;10.052;2022-10-16T05:51:04;43.53;;;41.13;;
47239;SDS011;32978;53.586;10.052;2022-10-16T05:56:00;41.67;;;39.30;;
47239;SDS011;32978;53.586;10.052;2022-10-16T06:00:58;42.55;;;40.25;;
47239;SDS011;32978;53.586;10.052;2022-10-16T06:05:54;42.30;;;40.03;;
47239;SDS011;32978;53.586;10.052;2022-10-16T06:11:01;42.42;;;39.85;;
47239;SDS011;32978;53.586;10.052;2022-10-16T06:15:59;39.88;;;37.63;;
47239;SDS011;32978;53.586;10.052;2022-10-16T06:20:56;40.83;;;38.28;;
47239;SDS011;32978;53.586;10.052;2022-10-16T06:25:52;38.30;;;35.97;;
47239;SDS011;32978;53.586;10.052;2022-10-16T06:30:48;40.88;;;38.38;;
47239;SDS011;32978;53.586;10.052;2022-10-16T06:35:45;42.80;;;40.17;;
47239;SDS011;32978;53.586;10.052;2022-10-16T06:40:41;47.13;;;44.15;;
47239;SDS011;32978;53.586;10.052;2022-10-16T06:45:37;48.28;;;45.58;;
47239;SDS011;32978;53.586;10.052;2022-10-16T06:50:34;50.55;;;47.60;;
47239;SDS011;32978;53.586;10.052;2022-10-16T06:55:30;55.10;;;51.75;;
47239;SDS011;32978;53.586;10.052;2022-10-16T07:00:26;55.08;;;52.00;;
47239;SDS011;32978;53.586;10.052;2022-10-16T07:05:22;57.25;;;54.00;;
47239;SDS011;32978;53.586;10.052;2022-10-16T07:10:18;60.97;;;57.67;;
47239;SDS011;32978;53.586;10.052;2022-10-16T07:15:15;55.97;;;52.90;;
47239;SDS011;32978;53.586;10.052;2022-10-16T07:20:11;56.05;;;52.85;;
47239;SDS011;32978;53.586;10.052;2022-10-16T07:25:08;50.35;;;47.42;;
47239;SDS011;32978;53.586;10.052;2022-10-16T07:30:04;45.80;;;42.60;;
47239;SDS011;32978;53.586;10.052;2022-10-16T07:35:04;45.05;;;42.28;;
47239;SDS011;32978;53.586;10.052;2022-10-16T07:40:00;48.88;;;46.00;;
47239;SDS011;32978;53.586;10.052;2022-10-16T07:44:57;45.97;;;43.22;;
47239;SDS011;32978;53.586;10.052;2022-10-16T07:49:53;49.05;;;46.40;;
47239;SDS011;32978;53.586;10.052;2022-10-16T07:54:49;46.25;;;43.25;;
47239;SDS011;32978;53.586;10.052;2022-10-16T07:59:46;38.10;;;36.00;;
47239;SDS011;32978;53.586;10.052;2022-10-16T08:04:42;35.00;;;33.08;;
47239;SDS011;32978;53.586;10.052;2022-10-16T08:09:39;33.67;;;31.65;;
47239;SDS011;32978;53.586;10.052;2022-10-16T08:14:35;35.38;;;32.80;;
47239;SDS011;32978;53.586;10.052;2022-10-16T08:19:31;29.98;;;28.08;;
47239;SDS011;32978;53.586;10.052;2022-10-16T08:24:30;28.83;;;27.13;;
47239;SDS011;32978;53.586;10.052;2022-10-16T08:29:27;25.98;;;24.25;;
47239;SDS011;32978;53.586;10.052;2022-10-16T08:34:23;24.98;;;23.33;;
47239;SDS011;32978;53.586;10.052;2022-10-16T08:39:19;21.48;;;20.08;;
47239;SDS011;32978;53.586;10.052;2022-10-16T08:49:15;18.20;;;16.88;;
47239;SDS011;32978;53.586;10.052;2022-10-16T08:54:23;17.33;;;16.30;;
47239;SDS011;32978;53.586;10.052;2022-10-16T08:59:22;16.70;;;15.50;;
47239;SDS011;32978;53.586;10.052;2022-10-16T09:09:38;16.75;;;15.65;;
47239;SDS011;32978;53.586;10.052;2022-10-16T09:14:45;15.27;;;14.27;;
47239;SDS011;32978;53.586;10.052;2022-10-16T09:19:52;15.90;;;14.68;;
47239;SDS011;32978;53.586;10.052;2022-10-16T09:24:49;14.95;;;13.95;;
47239;SDS011;32978;53.586;10.052;2022-10-16T09:29:46;13.77;;;12.77;;
47239;SDS011;32978;53.586;10.052;2022-10-16T09:34:43;13.18;;;12.07;;
47239;SDS011;32978;53.586;10.052;2022-10-16T09:39:51;13.25;;;11.85;;
47239;SDS011;32978;53.586;10.052;2022-10-16T09:44:48;11.23;;;10.32;;
47239;SDS011;32978;53.586;10.052;2022-10-16T09:49:53;11.45;;;10.45;;
47239;SDS011;32978;53.586;10.052;2022-10-16T09:54:56;10.50;;;9.70;;
47239;SDS011;32978;53.586;10.052;2022-10-16T09:59:53;11.25;;;9.98;;
47239;SDS011;32978;53.586;10.052;2022-10-16T10:04:52;10.43;;;9.38;;
47239;SDS011;32978;53.586;10.052;2022-10-16T10:09:53;10.15;;;9.35;;
47239;SDS011;32978;53.586;10.052;2022-10-16T10:14:51;11.63;;;9.68;;
47239;SDS011;32978;53.586;10.052;2022-10-16T10:24:45;10.98;;;9.93;;
47239;SDS011;32978;53.586;10.052;2022-10-16T10:45:18;10.73;;;9.85;;
47239;SDS011;32978;53.586;10.052;2022-10-16T10:50:22;9.13;;;8.40;;
47239;SDS011;32978;53.586;10.052;2022-10-16T11:00:42;9.27;;;8.35;;
47239;SDS011;32978;53.586;10.052;2022-10-16T11:05:43;9.15;;;8.02;;
47239;SDS011;32978;53.586;10.052;2022-10-16T11:15:42;8.25;;;7.63;;
47239;SDS011;32978;53.586;10.052;2022-10-16T11:20:42;8.43;;;7.72;;
47239;SDS011;32978;53.586;10.052;2022-10-16T11:25:38;8.80;;;7.10;;
47239;SDS011;32978;53.586;10.052;2022-10-16T11:40:57;7.68;;;6.85;;
47239;SDS011;32978;53.586;10.052;2022-10-16T11:45:55;7.07;;;6.47;;
47239;SDS011;32978;53.586;10.052;2022-10-16T11:50:54;7.50;;;6.80;;
47239;SDS011;32978;53.586;10.052;2022-10-16T11:55:51;10.00;;;8.10;;
47239;SDS011;32978;53.586;10.052;2022-10-16T12:16:20;7.97;;;7.15;;
47239;SDS011;32978;53.586;10.052;2022-10-16T12:21:17;7.88;;;7.18;;
47239;SDS011;32978;53.586;10.052;2022-10-16T12:26:23;10.18;;;7.55;;
47239;SDS011;32978;53.586;10.052;2022-10-16T12:31:19;7.93;;;7.13;;
47239;SDS011;32978;53.586;10.052;2022-10-16T12:36:26;9.02;;;7.28;;
47239;SDS011;32978;53.586;10.052;2022-10-16T12:41:27;7.72;;;6.80;;
47239;SDS011;32978;53.586;10.052;2022-10-16T12:56:27;6.68;;;6.13;;
47239;SDS011;32978;53.586;10.052;2022-10-16T13:06:30;7.25;;;6.20;;
47239;SDS011;32978;53.586;10.052;2022-10-16T13:21:47;9.18;;;5.97;;
47239;SDS011;32978;53.586;10.052;2022-10-16T13:31:57;7.57;;;6.07;;
47239;SDS011;32978;53.586;10.052;2022-10-16T13:36:54;6.50;;;5.90;;
47239;SDS011;32978;53.586;10.052;2022-10-16T13:47:05;8.82;;;6.13;;
47239;SDS011;32978;53.586;10.052;2022-10-16T13:52:02;7.20;;;5.90;;
47239;SDS011;32978;53.586;10.052;2022-10-16T13:57:04;9.27;;;6.07;;
47239;SDS011;32978;53.586;10.052;2022-10-16T14:02:28;6.93;;;6.13;;
47239;SDS011;32978;53.586;10.052;2022-10-16T14:07:27;8.43;;;6.30;;
47239;SDS011;32978;53.586;10.052;2022-10-16T14:12:24;9.00;;;5.88;;
47239;SDS011;32978;53.586;10.052;2022-10-16T14:17:27;5.82;;;5.32;;
47239;SDS011;32978;53.586;10.052;2022-10-16T14:22:35;6.63;;;6.00;;
47239;SDS011;32978;53.586;10.052;2022-10-16T14:27:33;8.02;;;6.05;;
47239;SDS011;32978;53.586;10.052;2022-10-16T14:32:29;8.93;;;6.00;;
47239;SDS011;32978;53.586;10.052;2022-10-16T14:37:27;11.40;;;5.97;;
47239;SDS011;32978;53.586;10.052;2022-10-16T14:42:24;10.30;;;5.95;;
47239;SDS011;32978;53.586;10.052;2022-10-16T14:47:21;6.70;;;5.80;;
47239;SDS011;32978;53.586;10.052;2022-10-16T14:52:21;8.45;;;6.15;;
47239;SDS011;32978;53.586;10.052;2022-10-16T14:57:18;7.10;;;6.38;;
47239;SDS011;32978;53.586;10.052;2022-10-16T15:07:12;8.25;;;6.20;;
47239;SDS011;32978;53.586;10.052;2022-10-16T15:12:08;11.98;;;5.85;;
47239;SDS011;32978;53.586;10.052;2022-10-16T15:17:04;7.45;;;6.07;;
47239;SDS011;32978;53.586;10.052;2022-10-16T15:22:01;8.48;;;6.50;;
47239;SDS011;32978;53.586;10.052;2022-10-16T15:26:57;7.28;;;6.00;;
47239;SDS011;32978;53.586;10.052;2022-10-16T15:31:53;7.60;;;5.97;;
47239;SDS011;32978;53.586;10.052;2022-10-16T15:36:49;6.32;;;5.68;;
47239;SDS011;32978;53.586;10.052;2022-10-16T15:41:46;6.80;;;6.00;;
47239;SDS011;32978;53.586;10.052;2022-10-16T15:46:47;8.52;;;6.38;;
47239;SDS011;32978;53.586;10.052;2022-10-16T15:51:44;8.63;;;5.93;;
47239;SDS011;32978;53.586;10.052;2022-10-16T15:56:40;7.82;;;6.07;;
47239;SDS011;32978;53.586;10.052;2022-10-16T16:01:37;7.90;;;6.38;;
47239;SDS011;32978;53.586;10.052;2022-10-16T16:06:33;12.13;;;6.68;;
47239;SDS011;32978;53.586;10.052;2022-10-16T16:11:30;8.55;;;6.22;;
47239;SDS011;32978;53.586;10.052;2022-10-16T16:16:28;7.97;;;6.30;;
47239;SDS011;32978;53.586;10.052;2022-10-16T16:21:24;7.78;;;6.68;;
47239;SDS011;32978;53.586;10.052;2022-10-16T16:31:16;9.13;;;6.70;;
47239;SDS011;32978;53.586;10.052;2022-10-16T16:36:13;7.85;;;7.00;;
47239;SDS011;32978;53.586;10.052;2022-10-16T16:41:14;8.40;;;7.60;;
47239;SDS011;32978;53.586;10.052;2022-10-16T16:46:11;11.77;;;7.93;;
47239;SDS011;32978;53.586;10.052;2022-10-16T16:51:09;15.43;;;8.77;;
47239;SDS011;32978;53.586;10.052;2022-10-16T16:56:06;11.00;;;8.25;;
47239;SDS011;32978;53.586;10.052;2022-10-16T17:01:02;9.93;;;8.25;;
47239;SDS011;32978;53.586;10.052;2022-10-16T17:06:16;9.15;;;8.15;;
47239;SDS011;32978;53.586;10.052;2022-10-16T17:11:17;11.95;;;9.68;;
47239;SDS011;32978;53.586;10.052;2022-10-16T17:16:13;12.10;;;9.80;;
47239;SDS011;32978;53.586;10.052;2022-10-16T17:21:10;10.98;;;9.93;;
47239;SDS011;32978;53.586;10.052;2022-10-16T17:26:10;11.50;;;10.30;;
47239;SDS011;32978;53.586;10.052;2022-10-16T17:31:08;11.00;;;10.00;;
47239;SDS011;32978;53.586;10.052;2022-10-16T17:36:06;16.80;;;10.98;;
47239;SDS011;32978;53.586;10.052;2022-10-16T17:41:16;16.80;;;11.07;;
47239;SDS011;32978;53.586;10.052;2022-10-16T17:46:13;11.80;;;10.80;;
47239;SDS011;32978;53.586;10.052;2022-10-16T17:51:10;12.73;;;11.52;;
47239;SDS011;32978;53.586;10.052;2022-10-16T17:56:11;13.57;;;12.45;;
47239;SDS011;32978;53.586;10.052;2022-10-16T18:01:18;14.80;;;12.30;;
47239;SDS011;32978;53.586;10.052;2022-10-16T18:06:14;16.25;;;13.65;;
47239;SDS011;32978;53.586;10.052;2022-10-16T18:11:18;15.57;;;13.88;;
47239;SDS011;32978;53.586;10.052;2022-10-16T18:16:14;18.13;;;14.45;;
47239;SDS011;32978;53.586;10.052;2022-10-16T18:21:12;16.85;;;15.15;;
47239;SDS011;32978;53.586;10.052;2022-10-16T18:26:10;17.23;;;15.52;;
47239;SDS011;32978;53.586;10.052;2022-10-16T18:31:07;23.85;;;16.83;;
47239;SDS011;32978;53.586;10.052;2022-10-16T18:36:05;19.15;;;17.20;;
47239;SDS011;32978;53.586;10.052;2022-10-16T18:41:02;18.55;;;16.65;;
47239;SDS011;32978;53.586;10.052;2022-10-16T18:46:01;17.92;;;16.02;;
47239;SDS011;32978;53.586;10.052;2022-10-16T18:51:08;20.27;;;18.58;;
47239;SDS011;32978;53.586;10.052;2022-10-16T18:56:05;20.70;;;18.92;;
47239;SDS011;32978;53.586;10.052;2022-10-16T19:01:03;22.45;;;20.40;;
47239;SDS011;32978;53.586;10.052;2022-10-16T19:06:00;22.65;;;19.42;;
47239;SDS011;32978;53.586;10.052;2022-10-16T19:11:04;26.13;;;21.40;;
47239;SDS011;32978;53.586;10.052;2022-10-16T19:16:01;23.00;;;21.00;;
47239;SDS011;32978;53.586;10.052;2022-10-16T19:21:14;23.83;;;21.67;;
47239;SDS011;32978;53.586;10.052;2022-10-16T19:26:12;22.08;;;20.10;;
47239;SDS011;32978;53.586;10.052;2022-10-16T19:31:11;25.48;;;23.27;;
47239;SDS011;32978;53.586;10.052;2022-10-16T19:41:11;27.80;;;25.45;;
47239;SDS011;32978;53.586;10.052;2022-10-16T19:46:08;28.38;;;26.05;;
47239;SDS011;32978;53.586;10.052;2022-10-16T19:51:04;28.88;;;26.65;;
47239;SDS011;32978;53.586;10.052;2022-10-16T19:56:01;32.70;;;29.77;;
47239;SDS011;32978;53.586;10.052;2022-10-16T20:01:06;31.70;;;29.13;;
47239;SDS011;32978;53.586;10.052;2022-10-16T20:06:02;32.53;;;29.98;;
47239;SDS011;32978;53.586;10.052;2022-10-16T20:11:01;31.90;;;29.65;;
47239;SDS011;32978;53.586;10.052;2022-10-16T20:15:58;33.25;;;30.63;;
47239;SDS011;32978;53.586;10.052;2022-10-16T20:20:54;31.25;;;28.90;;
47239;SDS011;32978;53.586;10.052;2022-10-16T20:25:51;35.90;;;33.03;;
47239;SDS011;32978;53.586;10.052;2022-10-16T20:30:48;36.17;;;33.42;;
47239;SDS011;32978;53.586;10.052;2022-10-16T20:35:46;36.15;;;33.38;;
47239;SDS011;32978;53.586;10.052;2022-10-16T20:40:46;35.78;;;32.97;;
47239;SDS011;32978;53.586;10.052;2022-10-16T20:45:43;34.72;;;32.08;;
47239;SDS011;32978;53.586;10.052;2022-10-16T20:50:40;35.17;;;32.60;;
47239;SDS011;32978;53.586;10.052;2022-10-16T20:55:36;36.05;;;33.65;;
47239;SDS011;32978;53.586;10.052;2022-10-16T21:00:33;37.50;;;34.90;;
47239;SDS011;32978;53.586;10.052;2022-10-16T21:05:29;36.65;;;34.13;;
47239;SDS011;32978;53.586;10.052;2022-10-16T21:10:28;34.75;;;32.58;;
47239;SDS011;32978;53.586;10.052;2022-10-16T21:15:24;40.80;;;38.10;;
47239;SDS011;32978;53.586;10.052;2022-10-16T21:20:20;36.15;;;33.30;;
47239;SDS011;32978;53.586;10.052;2022-10-16T21:25:17;36.25;;;33.63;;
47239;SDS011;32978;53.586;10.052;2022-10-16T21:30:13;37.80;;;35.00;;
47239;SDS011;32978;53.586;10.052;2022-10-16T21:35:09;40.30;;;37.63;;
47239;SDS011;32978;53.586;10.052;2022-10-16T21:40:06;40.80;;;37.95;;
47239;SDS011;32978;53.586;10.052;2022-10-16T21:45:02;43.83;;;40.00;;
47239;SDS011;32978;53.586;10.052;2022-10-16T21:49:58;44.45;;;41.55;;
47239;SDS011;32978;53.586;10.052;2022-10-16T21:54:55;43.63;;;40.55;;
47239;SDS011;32978;53.586;10.052;2022-10-16T21:59:51;48.45;;;45.17;;
47239;SDS011;32978;53.586;10.052;2022-10-16T22:04:47;46.45;;;43.65;;
47239;SDS011;32978;53.586;10.052;2022-10-16T22:09:43;50.95;;;47.72;;
47239;SDS011;32978;53.586;10.052;2022-10-16T22:14:39;51.05;;;47.88;;
47239;SDS011;32978;53.586;10.052;2022-10-16T22:19:36;48.85;;;45.65;;
47239;SDS011;32978;53.586;10.052;2022-10-16T22:24:32;53.95;;;50.72;;
47239;SDS011;32978;53.586;10.052;2022-10-16T22:29:28;51.75;;;48.47;;
47239;SDS011;32978;53.586;10.052;2022-10-16T22:34:24;52.63;;;49.42;;
47239;SDS011;32978;53.586;10.052;2022-10-16T22:39:23;53.17;;;49.58;;
47239;SDS011;32978;53.586;10.052;2022-10-16T22:44:19;52.40;;;49.03;;
47239;SDS011;32978;53.586;10.052;2022-10-16T22:49:15;56.13;;;52.67;;
47239;SDS011;32978;53.586;10.052;2022-10-16T22:54:13;52.67;;;49.35;;
47239;SDS011;32978;53.586;10.052;2022-10-16T22:59:10;58.78;;;54.95;;
47239;SDS011;32978;53.586;10.052;2022-10-16T23:04:06;58.25;;;54.58;;
47239;SDS011;32978;53.586;10.052;2022-10-16T23:09:02;59.55;;;55.78;;
47239;SDS011;32978;53.586;10.052;2022-10-16T23:13:59;56.97;;;53.53;;
47239;SDS011;32978;53.586;10.052;2022-10-16T23:18:55;61.60;;;58.00;;
47239;SDS011;32978;53.586;10.052;2022-10-16T23:23:53;62.88;;;59.38;;
47239;SDS011;32978;53.586;10.052;2022-10-16T23:28:49;61.85;;;57.97;;
47239;SDS011;32978;53.586;10.052;2022-10-16T23:33:46;66.25;;;62.65;;
47239;SDS011;32978;53.586;10.052;2022-10-16T23:38:42;72.15;;;67.82;;
47239;SDS011;32978;53.586;10.052;2022-10-16T23:43:39;71.93;;;66.97;;
47239;SDS011;32978;53.586;10.052;2022-10-16T23:48:35;77.72;;;73.65;;
47239;SDS011;32978;53.586;10.052;2022-10-16T23:53:35;82.07;;;77.68;;
47239;SDS011;32978;53.586;10.052;2022-10-16T23:58:31;85.20;;;80.47;;
